Time;durP1;ratioP1;P1;durP2;ratioP2;P2;SDS_P1;SDS_P2;PMS_P1;PMS_P2;Temp;Humidity;BMP_temperature;BMP_pressure;BME280_temperature;BME280_humidity;BME280_pressure;Samples;Min_cycle;Max_cycle;Signal;HPM_P1;HPM_P2
2023/06/30 00:00:12;;;;;;;17.58;11.13;;;;;;;19.48;100.00;93607.59;5054837;28;20507;-64
2023/06/30 00:02:41;;;;;;;18.15;11.43;;;;;;;19.35;100.00;93608.63;5068294;28;20087;-64
2023/06/30 00:05:09;;;;;;;17.88;11.52;;;;;;;19.28;100.00;93611.06;5063777;28;20045;-63
2023/06/30 00:07:37;;;;;;;20.90;13.60;;;;;;;19.23;100.00;93597.81;5059376;28;20048;-64
2023/06/30 00:10:06;;;;;;;22.33;15.47;;;;;;;19.24;100.00;93596.56;5068289;28;20105;-63
2023/06/30 00:12:33;;;;;;;20.02;11.90;;;;;;;19.21;100.00;93580.81;5057357;28;20405;-63
2023/06/30 00:15:00;;;;;;;17.95;12.18;;;;;;;19.12;100.00;93584.47;5044283;28;20040;-64
2023/06/30 00:17:27;;;;;;;17.67;11.75;;;;;;;19.11;100.00;93586.47;5058575;28;20409;-64
2023/06/30 00:19:57;;;;;;;17.95;12.35;;;;;;;19.06;100.00;93586.41;5070090;28;20051;-63
2023/06/30 00:22:25;;;;;;;17.87;11.90;;;;;;;19.02;100.00;93578.25;5075366;28;20044;-63
2023/06/30 00:24:56;;;;;;;18.52;11.70;;;;;;;19.02;100.00;93588.59;5067750;28;20109;-64
2023/06/30 00:27:23;;;;;;;20.40;12.13;;;;;;;18.92;100.00;93585.13;5067054;28;20052;-63
2023/06/30 00:29:50;;;;;;;18.88;11.90;;;;;;;18.93;100.00;93579.09;5055115;28;20096;-63
2023/06/30 00:32:17;;;;;;;27.40;18.88;;;;;;;18.91;100.00;93578.03;5074960;28;20041;-63
2023/06/30 00:34:44;;;;;;;23.07;14.47;;;;;;;18.90;100.00;93582.81;5063041;28;20037;-63
2023/06/30 00:37:10;;;;;;;20.02;12.57;;;;;;;18.83;100.00;93585.22;5059025;28;20392;-64
2023/06/30 00:39:37;;;;;;;18.05;11.57;;;;;;;18.74;100.00;93583.25;5067446;28;20032;-63
2023/06/30 00:42:04;;;;;;;16.88;11.60;;;;;;;18.62;100.00;93578.75;5067744;28;20478;-64
2023/06/30 00:44:31;;;;;;;19.58;12.05;;;;;;;18.62;100.00;93578.75;5064301;28;20045;-64
2023/06/30 00:47:00;;;;;;;18.47;11.43;;;;;;;18.62;100.00;93578.75;5054560;28;20048;-64
2023/06/30 00:49:28;;;;;;;20.35;11.77;;;;;;;18.60;100.00;93578.44;5066971;28;20049;-63
2023/06/30 00:51:55;;;;;;;18.52;11.00;;;;;;;18.57;100.00;93571.81;5067886;28;20037;-63
2023/06/30 00:54:22;;;;;;;18.02;11.70;;;;;;;18.50;100.00;93563.84;5067096;28;20217;-63
2023/06/30 00:56:49;;;;;;;17.65;11.70;;;;;;;18.38;100.00;93567.66;5067188;28;20117;-64
2023/06/30 00:59:16;;;;;;;18.23;12.07;;;;;;;18.36;100.00;93568.13;5056799;28;20059;-64
2023/06/30 01:01:47;;;;;;;17.05;11.38;;;;;;;18.38;100.00;93556.53;5063453;28;20366;-64
2023/06/30 01:04:36;;;;;;;19.30;13.05;;;;;;;18.41;100.00;93561.94;5065077;28;20412;-63
2023/06/30 01:07:22;;;;;;;17.52;11.85;;;;;;;18.39;100.00;93553.31;5046545;28;20049;-64
2023/06/30 01:09:57;;;;;;;19.27;12.20;;;;;;;18.38;100.00;93546.19;5062836;28;20131;-63
2023/06/30 01:12:25;;;;;;;20.50;12.93;;;;;;;18.36;100.00;93555.00;5066639;28;20041;-63
2023/06/30 01:14:53;;;;;;;19.00;12.75;;;;;;;18.34;100.00;93553.94;5067432;28;20048;-64
2023/06/30 01:17:21;;;;;;;21.10;12.80;;;;;;;18.28;100.00;93553.81;5067375;28;20180;-64
2023/06/30 01:19:53;;;;;;;17.95;12.10;;;;;;;18.12;100.00;93560.56;5054273;28;20407;-64
2023/06/30 01:22:28;;;;;;;21.05;12.50;;;;;;;18.13;100.00;93559.34;5077559;28;20123;-64
2023/06/30 01:24:59;;;;;;;18.10;12.50;;;;;;;18.08;100.00;93557.22;5064173;28;20792;-64
2023/06/30 01:27:27;;;;;;;19.73;12.80;;;;;;;18.01;100.00;93552.03;5055653;28;20052;-63
2023/06/30 01:29:55;;;;;;;21.02;13.18;;;;;;;18.01;100.00;93548.47;5069773;28;20052;-64
2023/06/30 01:32:22;;;;;;;18.67;12.27;;;;;;;18.00;100.00;93549.72;5066648;28;20047;-63
2023/06/30 01:34:49;;;;;;;20.27;12.30;;;;;;;17.96;100.00;93538.78;5067305;28;20478;-63
2023/06/30 01:37:16;;;;;;;20.00;12.07;;;;;;;17.96;100.00;93539.53;5067000;28;20048;-63
2023/06/30 01:39:43;;;;;;;20.90;12.70;;;;;;;17.97;100.00;93548.66;5066897;28;20040;-63
2023/06/30 01:42:10;;;;;;;19.13;12.73;;;;;;;17.97;100.00;93545.88;5036144;28;20256;-63
2023/06/30 01:44:38;;;;;;;20.17;12.80;;;;;;;17.89;100.00;93545.47;5066510;28;20185;-63
2023/06/30 01:47:05;;;;;;;19.70;12.02;;;;;;;17.88;100.00;93541.13;5066667;28;20045;-63
2023/06/30 01:49:34;;;;;;;20.10;12.47;;;;;;;17.92;100.00;93538.94;5066277;28;20067;-64
2023/06/30 01:52:01;;;;;;;19.58;12.23;;;;;;;17.99;100.00;93539.84;5053794;28;20083;-64
2023/06/30 01:54:28;;;;;;;18.23;12.05;;;;;;;18.03;100.00;93535.66;5066278;28;20807;-63
2023/06/30 01:56:55;;;;;;;18.92;12.45;;;;;;;18.02;100.00;93541.69;5063307;28;20160;-63
2023/06/30 01:59:22;;;;;;;17.65;12.00;;;;;;;17.97;100.00;93529.22;5056859;28;20041;-62
2023/06/30 02:01:49;;;;;;;18.43;12.37;;;;;;;17.97;100.00;93529.22;5065712;28;20097;-63
2023/06/30 02:04:16;;;;;;;20.58;12.18;;;;;;;17.89;100.00;93528.81;5054704;28;20052;-63
2023/06/30 02:06:43;;;;;;;19.65;12.15;;;;;;;17.85;100.00;93530.22;5066318;28;20047;-63
2023/06/30 02:09:12;;;;;;;19.58;12.75;;;;;;;17.89;100.00;93523.25;5060067;28;20053;-61
2023/06/30 02:11:39;;;;;;;18.70;12.25;;;;;;;18.00;100.00;93521.94;5060772;28;20065;-61
2023/06/30 02:14:06;;;;;;;20.33;13.23;;;;;;;18.05;100.00;93524.06;5070746;28;20050;-63
2023/06/30 02:16:33;;;;;;;19.85;12.60;;;;;;;18.06;100.00;93522.84;5039291;28;20049;-64
2023/06/30 02:19:00;;;;;;;20.35;13.25;;;;;;;18.08;100.00;93531.47;5056503;28;20432;-64
2023/06/30 02:21:26;;;;;;;20.70;13.23;;;;;;;18.02;100.00;93528.56;5071280;28;20044;-63
2023/06/30 02:23:53;;;;;;;19.65;13.13;;;;;;;17.94;100.00;93524.59;5057012;28;20051;-63
2023/06/30 02:26:20;;;;;;;19.80;13.00;;;;;;;17.90;100.00;93530.34;5069981;28;20469;-63
2023/06/30 02:28:46;;;;;;;19.27;13.40;;;;;;;17.96;100.00;93531.22;5069408;28;20699;-63
2023/06/30 02:31:13;;;;;;;19.00;13.00;;;;;;;17.96;100.00;93531.22;5076251;28;20053;-63
2023/06/30 02:33:41;;;;;;;20.70;13.13;;;;;;;17.81;100.00;93538.69;5069641;28;20048;-63
2023/06/30 02:36:07;;;;;;;19.95;13.07;;;;;;;17.74;100.00;93534.25;5060687;28;20036;-64
2023/06/30 02:38:34;;;;;;;20.60;14.13;;;;;;;17.71;100.00;93543.53;5065232;28;20053;-63
2023/06/30 02:41:01;;;;;;;22.42;14.32;;;;;;;17.77;100.00;93532.56;5070257;28;20056;-63
2023/06/30 02:43:27;;;;;;;23.05;14.80;;;;;;;17.74;100.00;93539.03;5068978;28;20036;-63
2023/06/30 02:45:54;;;;;;;22.50;15.32;;;;;;;17.75;100.00;93533.03;5070225;28;20055;-63
2023/06/30 02:48:21;;;;;;;21.85;14.10;;;;;;;17.76;100.00;93531.00;5068769;28;20060;-62
2023/06/30 02:50:48;;;;;;;20.77;14.13;;;;;;;17.55;100.00;93528.03;5056878;28;20042;-63
2023/06/30 02:53:14;;;;;;;21.38;14.05;;;;;;;17.30;100.00;93522.91;5069361;28;20056;-63
2023/06/30 02:55:41;;;;;;;23.50;14.15;;;;;;;17.05;100.00;93524.88;5063769;28;20064;-63
2023/06/30 02:58:08;;;;;;;22.30;13.48;;;;;;;17.13;100.00;93520.53;5044254;28;20486;-63
2023/06/30 03:00:36;;;;;;;21.60;13.60;;;;;;;17.24;100.00;93516.47;5068841;28;20523;-63
2023/06/30 03:03:04;;;;;;;21.17;13.50;;;;;;;17.35;100.00;93522.28;5058288;28;20080;-64
2023/06/30 03:05:34;;;;;;;23.67;13.65;;;;;;;17.42;100.00;93519.16;5067126;28;20113;-63
2023/06/30 03:08:03;;;;;;;21.02;13.52;;;;;;;17.51;100.00;93518.38;5069518;28;20357;-63
2023/06/30 03:10:29;;;;;;;22.33;13.82;;;;;;;17.55;100.00;93516.94;5055374;28;20048;-64
2023/06/30 03:12:56;;;;;;;20.92;13.50;;;;;;;17.65;100.00;93519.69;5069265;28;20074;-63
2023/06/30 03:15:23;;;;;;;22.93;13.93;;;;;;;17.60;100.00;93517.53;5065841;28;20331;-63
2023/06/30 03:17:49;;;;;;;23.30;14.10;;;;;;;17.64;100.00;93518.91;5059291;28;20048;-63
2023/06/30 03:20:16;;;;;;;23.33;14.65;;;;;;;17.37;100.00;93511.50;5070531;28;20482;-63
2023/06/30 03:22:43;;;;;;;23.52;14.70;;;;;;;17.44;100.00;93513.91;5060165;28;20040;-63
2023/06/30 03:25:10;;;;;;;22.38;13.70;;;;;;;17.24;100.00;93514.47;5063629;28;20045;-63
2023/06/30 03:27:37;;;;;;;20.83;14.47;;;;;;;17.18;100.00;93510.78;5067864;28;20051;-64
2023/06/30 03:30:04;;;;;;;22.67;14.10;;;;;;;17.45;100.00;93518.22;5068198;28;20048;-63
2023/06/30 03:32:32;;;;;;;21.15;13.45;;;;;;;17.54;100.00;93509.84;5068346;28;20067;-63
2023/06/30 03:35:03;;;;;;;22.00;13.88;;;;;;;17.53;100.00;93511.09;5068848;28;20044;-63
2023/06/30 03:37:30;;;;;;;23.23;13.52;;;;;;;17.63;100.00;93511.06;5068354;28;20512;-63
2023/06/30 03:39:57;;;;;;;25.37;14.53;;;;;;;17.58;100.00;93516.00;5069090;28;20045;-63
2023/06/30 03:42:24;;;;;;;24.77;15.27;;;;;;;16.93;100.00;93518.28;5067905;28;20055;-63
2023/06/30 03:44:51;;;;;;;24.83;15.65;;;;;;;16.81;100.00;93527.56;5068806;28;20048;-63
2023/06/30 03:47:17;;;;;;;24.98;14.70;;;;;;;16.92;100.00;93530.63;5068548;28;20047;-63
2023/06/30 03:49:44;;;;;;;22.77;15.05;;;;;;;17.21;100.00;93522.97;5056678;28;20049;-63
2023/06/30 03:52:11;;;;;;;23.50;14.77;;;;;;;17.42;100.00;93516.38;5067202;28;20043;-63
2023/06/30 03:54:37;;;;;;;21.85;14.05;;;;;;;17.55;100.00;93505.84;5067813;28;20097;-63
2023/06/30 03:57:04;;;;;;;22.02;14.23;;;;;;;17.54;100.00;93518.16;5067935;28;20047;-63
2023/06/30 03:59:31;;;;;;;23.23;14.98;;;;;;;17.29;100.00;93519.38;5067564;28;20044;-64
2023/06/30 04:01:58;;;;;;;22.98;14.68;;;;;;;17.37;100.00;93517.03;5067795;28;20052;-63
2023/06/30 04:04:25;;;;;;;21.70;14.67;;;;;;;17.47;100.00;93512.97;5067571;28;20453;-63
2023/06/30 04:06:52;;;;;;;22.65;13.70;;;;;;;17.52;100.00;93511.56;5068416;28;20414;-63
2023/06/30 04:09:18;;;;;;;22.55;14.48;;;;;;;17.60;100.00;93517.53;5068257;28;20049;-63
2023/06/30 04:11:45;;;;;;;22.75;14.63;;;;;;;17.49;100.00;93521.59;5067748;28;20047;-63
2023/06/30 04:14:12;;;;;;;22.30;13.77;;;;;;;17.61;100.00;93516.31;5068481;28;20045;-63
2023/06/30 04:16:38;;;;;;;22.27;14.13;;;;;;;17.53;100.00;93529.75;5067195;28;20067;-63
2023/06/30 04:19:05;;;;;;;23.50;14.40;;;;;;;17.51;100.00;93523.91;5060768;28;20055;-63
2023/06/30 04:21:32;;;;;;;23.02;14.73;;;;;;;17.34;100.00;93535.41;5073438;28;20056;-63
2023/06/30 04:23:59;;;;;;;22.70;14.57;;;;;;;17.05;100.00;93544.28;5051605;28;20393;-63
2023/06/30 04:26:28;;;;;;;27.58;15.13;;;;;;;16.86;100.00;93540.78;5067156;28;20047;-63
2023/06/30 04:28:54;;;;;;;30.27;17.17;;;;;;;16.52;100.00;93548.19;5052821;28;20048;-63
2023/06/30 04:31:21;;;;;;;28.50;16.38;;;;;;;16.41;100.00;93547.13;5050081;28;20046;-62
2023/06/30 04:33:49;;;;;;;27.63;16.77;;;;;;;16.48;100.00;93544.81;5068099;28;20064;-63
2023/06/30 04:36:17;;;;;;;30.38;17.35;;;;;;;16.61;100.00;93533.56;5067784;28;20036;-63
2023/06/30 04:38:46;;;;;;;29.42;16.55;;;;;;;16.76;100.00;93531.69;5067413;28;20044;-63
2023/06/30 04:41:15;;;;;;;30.37;17.87;;;;;;;16.80;100.00;93525.97;5050587;28;20101;-63
2023/06/30 04:43:43;;;;;;;30.70;17.50;;;;;;;16.79;100.00;93524.44;5066919;28;20047;-63
2023/06/30 04:46:10;;;;;;;30.63;17.40;;;;;;;16.71;100.00;93524.00;5067711;28;20040;-63
2023/06/30 04:48:37;;;;;;;28.83;16.23;;;;;;;16.90;100.00;93523.97;5063563;28;20052;-63
2023/06/30 04:51:04;;;;;;;27.00;16.92;;;;;;;17.00;100.00;93524.72;5058224;28;20052;-63
2023/06/30 04:53:31;;;;;;;24.37;15.97;;;;;;;17.03;100.00;93527.34;5066736;28;20062;-63
2023/06/30 04:55:58;;;;;;;26.80;16.00;;;;;;;16.75;100.00;93541.22;5058749;28;20079;-63
2023/06/30 04:58:25;;;;;;;24.00;16.08;;;;;;;16.43;100.00;93559.28;5054317;28;20106;-62
2023/06/30 05:00:52;;;;;;;26.52;16.65;;;;;;;16.51;100.00;93559.72;5058317;28;20054;-63
2023/06/30 05:03:19;;;;;;;27.80;16.58;;;;;;;16.67;100.00;93555.88;5065094;28;20114;-63
2023/06/30 05:05:46;;;;;;;28.77;16.70;;;;;;;16.66;100.00;93568.97;5056082;28;21495;-63
2023/06/30 05:08:14;;;;;;;30.48;17.33;;;;;;;16.72;100.00;93583.75;5054416;28;20105;-63
2023/06/30 05:10:41;;;;;;;26.38;16.08;;;;;;;16.90;100.00;93584.94;5066863;28;20071;-63
2023/06/30 05:13:07;;;;;;;22.13;14.50;;;;;;;16.97;100.00;93593.72;5067681;28;20044;-63
2023/06/30 05:15:34;;;;;;;20.80;14.27;;;;;;;16.89;100.00;93589.72;5062632;28;20074;-64
2023/06/30 05:18:01;;;;;;;22.20;14.33;;;;;;;17.00;100.00;93589.25;5049744;28;20094;-64
2023/06/30 05:20:28;;;;;;;22.67;13.57;;;;;;;17.26;100.00;93597.97;5071277;28;20040;-64
2023/06/30 05:22:54;;;;;;;23.95;15.10;;;;;;;17.13;100.00;93597.41;5037510;28;20044;-65
2023/06/30 05:25:21;;;;;;;23.27;15.07;;;;;;;17.12;100.00;93598.63;5066659;28;20047;-64
2023/06/30 05:27:48;;;;;;;22.48;14.35;;;;;;;16.86;100.00;93604.53;5043129;28;20096;-65
2023/06/30 05:30:14;;;;;;;22.17;13.47;;;;;;;16.78;100.00;93606.03;5068902;28;20040;-65
2023/06/30 05:32:41;;;;;;;22.40;14.38;;;;;;;16.93;100.00;93600.66;5066473;28;20057;-64
2023/06/30 05:35:09;;;;;;;25.55;14.27;;;;;;;16.85;100.00;93602.97;5030327;28;20539;-64
2023/06/30 05:37:36;;;;;;;23.08;15.55;;;;;;;16.47;100.00;93604.19;5046663;28;20057;-65
2023/06/30 05:40:03;;;;;;;23.48;15.45;;;;;;;16.64;100.00;93617.75;5047442;28;20051;-64
2023/06/30 05:42:30;;;;;;;25.70;15.50;;;;;;;16.72;100.00;93603.13;5023574;28;20071;-64
2023/06/30 05:44:57;;;;;;;23.90;14.50;;;;;;;16.89;100.00;93600.06;5066961;28;20036;-64
2023/06/30 05:47:24;;;;;;;22.48;13.38;;;;;;;17.06;100.00;93603.25;5067909;28;20377;-64
2023/06/30 05:49:50;;;;;;;21.00;13.32;;;;;;;17.21;100.00;93600.63;5070922;28;20045;-64
2023/06/30 05:52:21;;;;;;;22.77;13.90;;;;;;;17.34;100.00;93598.41;5070935;28;20040;-65
2023/06/30 05:54:47;;;;;;;21.07;13.13;;;;;;;17.27;100.00;93601.53;5061579;28;21569;-64
2023/06/30 05:57:14;;;;;;;19.15;13.05;;;;;;;17.33;100.00;93605.19;5049459;28;20067;-62
2023/06/30 05:59:41;;;;;;;21.05;13.82;;;;;;;17.51;100.00;93609.91;5056522;28;20106;-61
2023/06/30 06:02:07;;;;;;;21.90;13.77;;;;;;;17.55;100.00;93616.81;5039420;28;20060;-63
2023/06/30 06:04:35;;;;;;;20.02;13.05;;;;;;;17.52;100.00;93620.53;5069916;28;20041;-62
2023/06/30 06:07:05;;;;;;;18.63;11.90;;;;;;;17.43;100.00;93620.56;5058765;28;20491;-62
2023/06/30 06:09:32;;;;;;;17.63;11.50;;;;;;;17.25;100.00;93623.41;5062305;28;20431;-62
2023/06/30 06:12:02;;;;;;;16.35;10.98;;;;;;;17.13;100.00;93616.81;5070202;28;20051;-61
2023/06/30 06:14:28;;;;;;;17.73;11.20;;;;;;;17.12;100.00;93610.50;5051920;28;20044;-62
2023/06/30 06:16:55;;;;;;;18.80;11.73;;;;;;;17.20;100.00;93616.47;5070399;28;20392;-62
2023/06/30 06:19:22;;;;;;;17.97;11.50;;;;;;;16.94;100.00;93618.81;5069751;28;20040;-60
2023/06/30 06:21:49;;;;;;;19.27;12.52;;;;;;;17.04;100.00;93625.88;5057792;28;20044;-62
2023/06/30 06:24:18;;;;;;;20.13;12.30;;;;;;;16.87;100.00;93625.47;5070465;28;20372;-63
2023/06/30 06:26:45;;;;;;;19.02;11.80;;;;;;;16.89;100.00;93639.63;5066452;28;20067;-61
2023/06/30 06:29:21;;;;;;;18.05;11.70;;;;;;;17.05;100.00;93632.22;5041821;28;20060;-61
2023/06/30 06:31:49;;;;;;;20.83;12.27;;;;;;;17.09;100.00;93630.81;5066468;28;20856;-63
2023/06/30 06:34:17;;;;;;;18.23;10.63;;;;;;;17.02;100.00;93633.13;5064800;28;20040;-61
2023/06/30 06:36:45;;;;;;;17.42;10.60;;;;;;;17.03;100.00;93634.69;5055579;28;20240;-62
2023/06/30 06:39:12;;;;;;;19.05;11.73;;;;;;;17.12;100.00;93632.69;5070116;28;20694;-62
2023/06/30 06:41:39;;;;;;;16.58;10.10;;;;;;;17.00;100.00;93641.91;5068622;28;20059;-62
2023/06/30 06:44:06;;;;;;;19.23;11.57;;;;;;;16.78;100.00;93642.84;5070452;28;20051;-61
2023/06/30 06:46:32;;;;;;;20.25;11.90;;;;;;;16.74;100.00;93633.91;5069368;28;20151;-62
2023/06/30 06:48:59;;;;;;;20.38;13.13;;;;;;;16.13;100.00;93635.69;5070337;28;20424;-61
2023/06/30 06:51:26;;;;;;;23.70;14.30;;;;;;;16.19;100.00;93631.09;5069626;28;20049;-63
2023/06/30 06:53:55;;;;;;;23.88;14.00;;;;;;;16.21;100.00;93631.41;5046441;28;20061;-61
2023/06/30 06:56:22;;;;;;;22.50;13.43;;;;;;;16.31;100.00;93632.19;5063052;28;20101;-61
2023/06/30 06:58:49;;;;;;;21.73;12.82;;;;;;;16.45;100.00;93631.59;5069895;28;20047;-62
2023/06/30 07:01:16;;;;;;;20.63;12.93;;;;;;;16.38;100.00;93626.38;5048944;28;20067;-60
2023/06/30 07:03:43;;;;;;;24.67;14.05;;;;;;;16.31;100.00;93613.56;5063606;28;20072;-61
2023/06/30 07:06:09;;;;;;;22.98;14.98;;;;;;;16.07;100.00;93604.31;5062391;28;20048;-61
2023/06/30 07:08:36;;;;;;;22.47;14.07;;;;;;;16.31;100.00;93594.19;5069463;28;20047;-63
2023/06/30 07:11:04;;;;;;;23.65;14.10;;;;;;;16.40;100.00;93596.22;5069863;28;20378;-61
2023/06/30 07:13:30;;;;;;;24.55;14.93;;;;;;;16.21;100.00;93600.94;5063730;28;20037;-61
2023/06/30 07:15:57;;;;;;;23.70;15.25;;;;;;;16.36;100.00;93615.75;5061953;28;20055;-61
2023/06/30 07:18:25;;;;;;;21.98;13.65;;;;;;;16.66;100.00;93616.06;5063815;28;20045;-64
2023/06/30 07:20:53;;;;;;;23.23;13.87;;;;;;;16.94;100.00;93605.75;5070060;28;20062;-61
2023/06/30 07:23:20;;;;;;;22.45;14.23;;;;;;;16.84;100.00;93612.53;5071838;28;20036;-61
2023/06/30 07:25:49;;;;;;;22.23;12.90;;;;;;;17.18;100.00;93616.16;5068610;28;20189;-61
2023/06/30 07:28:16;;;;;;;23.65;13.45;;;;;;;17.75;100.00;93626.63;5055577;28;20046;-63
2023/06/30 07:30:43;;;;;;;22.13;13.40;;;;;;;17.52;100.00;93628.09;5070245;28;20067;-62
2023/06/30 07:33:10;;;;;;;24.77;14.07;;;;;;;18.09;100.00;93627.38;5069466;28;20105;-62
2023/06/30 07:35:37;;;;;;;21.52;12.82;;;;;;;18.32;100.00;93626.63;5068556;28;20452;-61
2023/06/30 07:38:04;;;;;;;22.73;13.52;;;;;;;18.30;100.00;93629.13;5069110;28;20059;-61
2023/06/30 07:40:31;;;;;;;22.02;13.30;;;;;;;17.82;100.00;93633.84;5068677;28;20101;-63
2023/06/30 07:43:17;;;;;;;21.77;12.73;;;;;;;18.20;100.00;93621.31;5047633;28;20358;-61
2023/06/30 07:45:44;;;;;;;21.63;12.90;;;;;;;18.04;100.00;93634.38;5055205;28;20045;-61
2023/06/30 07:48:11;;;;;;;22.13;12.95;;;;;;;17.96;100.00;93630.41;5038795;28;20051;-61
2023/06/30 07:50:38;;;;;;;21.13;12.20;;;;;;;17.08;100.00;93629.31;5046945;28;20045;-61
2023/06/30 07:53:08;;;;;;;22.08;12.07;;;;;;;17.06;100.00;93631.75;5044802;28;20083;-64
2023/06/30 07:55:35;;;;;;;20.50;12.70;;;;;;;17.01;100.00;93639.94;5068490;28;20038;-61
2023/06/30 07:58:02;;;;;;;19.23;10.90;;;;;;;17.44;100.00;93641.50;5068975;28;20040;-61
2023/06/30 08:00:30;;;;;;;19.00;11.18;;;;;;;17.42;100.00;93632.88;5062749;28;20049;-62
2023/06/30 08:02:57;;;;;;;18.45;10.70;;;;;;;17.55;100.00;93633.47;5061508;28;20125;-62
2023/06/30 08:05:24;;;;;;;16.17;10.02;;;;;;;17.50;100.00;93636.09;5050640;28;20468;-61
2023/06/30 08:07:51;;;;;;;17.23;10.48;;;;;;;17.38;100.00;93632.28;5068828;28;20033;-62
2023/06/30 08:10:18;;;;;;;17.00;10.00;;;;;;;17.22;100.00;93632.63;5068228;28;20036;-62
2023/06/30 08:12:45;;;;;;;16.35;10.25;;;;;;;17.42;100.00;93632.13;5068310;28;20040;-61
2023/06/30 08:15:12;;;;;;;17.65;11.25;;;;;;;17.22;100.00;93635.41;5037910;28;20052;-61
2023/06/30 08:17:39;;;;;;;18.35;11.38;;;;;;;17.27;100.00;93641.09;5068461;28;20045;-61
2023/06/30 08:20:23;;;;;;;18.00;11.13;;;;;;;17.86;100.00;93640.00;5064968;28;20515;-61
2023/06/30 08:22:50;;;;;;;18.40;11.77;;;;;;;17.49;100.00;93635.34;5060238;28;20048;-61
2023/06/30 08:25:23;;;;;;;18.60;11.82;;;;;;;17.54;100.00;93643.03;5068809;28;20044;-61
2023/06/30 08:27:50;;;;;;;19.95;12.48;;;;;;;17.16;100.00;93640.81;5056373;28;20049;-63
2023/06/30 08:30:17;;;;;;;18.27;11.30;;;;;;;17.29;100.00;93644.19;5071047;28;20036;-61
2023/06/30 08:32:48;;;;;;;20.30;12.40;;;;;;;17.43;100.00;93633.69;5067395;28;20419;-61
2023/06/30 08:35:15;;;;;;;18.83;12.93;;;;;;;16.73;100.00;93640.69;5021119;28;20412;-63
2023/06/30 08:37:42;;;;;;;18.55;12.50;;;;;;;17.31;100.00;93640.97;5050101;28;20040;-61
2023/06/30 08:40:10;;;;;;;20.77;13.75;;;;;;;16.64;100.00;93651.00;5048133;28;20048;-61
2023/06/30 08:42:40;;;;;;;20.55;14.23;;;;;;;16.92;100.00;93647.03;5057380;28;20036;-60
2023/06/30 08:45:10;;;;;;;20.10;13.45;;;;;;;17.19;100.00;93641.91;5068395;28;20047;-59
2023/06/30 08:47:37;;;;;;;21.20;13.77;;;;;;;16.97;100.00;93640.84;5067725;28;20043;-61
2023/06/30 08:50:05;;;;;;;21.08;13.95;;;;;;;17.31;100.00;93636.16;5067892;28;20109;-61
2023/06/30 08:52:34;;;;;;;22.75;14.93;;;;;;;17.66;100.00;93627.41;5067712;28;20055;-62
2023/06/30 08:55:02;;;;;;;23.63;15.05;;;;;;;17.35;100.00;93636.00;5054686;28;20051;-61
2023/06/30 08:57:31;;;;;;;22.73;15.63;;;;;;;16.88;100.00;93642.84;5067651;28;20362;-62
2023/06/30 08:59:58;;;;;;;22.10;14.77;;;;;;;17.31;100.00;93638.94;5067399;28;20493;-62
2023/06/30 09:02:25;;;;;;;20.35;12.95;;;;;;;17.53;100.00;93632.41;5036718;28;20116;-59
2023/06/30 09:04:53;;;;;;;22.10;13.43;;;;;;;17.76;100.00;93640.00;5067668;28;20044;-61
2023/06/30 09:07:26;;;;;;;21.92;14.30;;;;;;;17.75;100.00;93638.50;5050285;28;20040;-59
2023/06/30 09:10:03;;;;;;;20.90;14.07;;;;;;;17.08;100.00;93648.72;5066783;28;20232;-62
2023/06/30 09:12:30;;;;;;;20.30;13.27;;;;;;;17.21;100.00;93650.53;5067777;28;20551;-59
2023/06/30 09:15:01;;;;;;;24.55;15.35;;;;;;;16.68;100.00;93657.94;5054727;28;20052;-59
2023/06/30 09:17:30;;;;;;;22.80;14.95;;;;;;;16.80;100.00;93658.22;5049637;28;20121;-59
2023/06/30 09:19:57;;;;;;;22.20;14.82;;;;;;;16.74;100.00;93656.09;5068046;28;20353;-59
2023/06/30 09:22:25;;;;;;;21.63;14.23;;;;;;;16.78;100.00;93662.25;5056820;28;20055;-60
2023/06/30 09:25:27;;;;;;;22.20;13.43;;;;;;;16.91;100.00;93664.13;5057528;28;20032;-61
2023/06/30 09:27:54;;;;;;;20.40;13.00;;;;;;;17.09;100.00;93646.69;5070608;28;20412;-59
2023/06/30 09:30:35;;;;;;;20.80;13.07;;;;;;;17.39;100.00;93633.09;5075840;28;20044;-59
2023/06/30 09:33:02;;;;;;;19.52;12.40;;;;;;;17.45;100.00;93637.53;5072261;28;20048;-59
2023/06/30 09:35:40;;;;;;;19.35;12.43;;;;;;;17.45;100.00;93642.31;5070979;28;20039;-59
2023/06/30 09:38:15;;;;;;;19.97;13.07;;;;;;;17.51;100.00;93632.88;5072203;28;20048;-59
2023/06/30 09:40:46;;;;;;;18.30;11.85;;;;;;;18.27;100.00;93632.06;5064183;28;20049;-60
2023/06/30 09:43:19;;;;;;;18.83;11.80;;;;;;;18.25;100.00;93615.13;5066204;28;20043;-59
2023/06/30 09:45:53;;;;;;;17.95;11.90;;;;;;;19.30;100.00;93606.53;5070520;28;20310;-59
2023/06/30 09:48:20;;;;;;;18.58;11.25;;;;;;;19.36;100.00;93609.41;5071736;28;20358;-59
2023/06/30 09:50:47;;;;;;;18.33;11.53;;;;;;;19.38;100.00;93604.13;5070385;28;20400;-59
2023/06/30 09:53:20;;;;;;;15.48;10.10;;;;;;;19.85;100.00;93607.94;5070982;28;20706;-61
2023/06/30 09:55:49;;;;;;;17.85;10.48;;;;;;;20.28;100.00;93608.31;5058124;28;21637;-58
2023/06/30 09:58:18;;;;;;;17.35;11.00;;;;;;;20.30;100.00;93622.50;5051966;28;20053;-59
2023/06/30 10:00:46;;;;;;;16.33;10.73;;;;;;;20.20;100.00;93620.31;5057836;28;20401;-61
2023/06/30 10:03:16;;;;;;;15.67;10.40;;;;;;;20.15;100.00;93619.75;5071413;28;20732;-60
2023/06/30 10:05:46;;;;;;;16.63;11.13;;;;;;;20.28;100.00;93613.88;5070485;28;20437;-60
2023/06/30 10:08:14;;;;;;;15.90;11.13;;;;;;;20.31;100.00;93612.13;5057727;28;20068;-60
2023/06/30 10:10:42;;;;;;;17.50;10.80;;;;;;;20.73;100.00;93606.09;5069985;28;20048;-60
2023/06/30 10:13:11;;;;;;;18.08;11.63;;;;;;;20.37;100.00;93623.34;5071202;28;20093;-60
2023/06/30 10:15:40;;;;;;;17.10;10.43;;;;;;;20.84;100.00;93618.63;5070148;28;20136;-60
2023/06/30 10:18:12;;;;;;;16.08;10.00;;;;;;;21.81;100.00;93593.16;5070862;28;20615;-60
2023/06/30 10:20:39;;;;;;;15.20;10.13;;;;;;;22.49;100.00;93589.50;5053259;28;20049;-60
2023/06/30 10:23:14;;;;;;;16.23;9.77;;;;;;;23.06;100.00;93586.94;5065186;28;20053;-60
2023/06/30 10:25:41;;;;;;;15.05;9.77;;;;;;;23.23;100.00;93582.13;5069505;28;20153;-62
2023/06/30 10:28:08;;;;;;;14.27;9.03;;;;;;;22.65;100.00;93584.50;5057314;28;20064;-61
2023/06/30 10:30:36;;;;;;;13.90;9.50;;;;;;;22.38;100.00;93591.50;5066308;28;20056;-60
2023/06/30 10:33:03;;;;;;;17.02;10.55;;;;;;;21.11;100.00;93597.88;5052760;28;20041;-61
2023/06/30 10:35:31;;;;;;;16.25;10.65;;;;;;;20.65;100.00;93602.19;5070029;28;20045;-61
2023/06/30 10:37:58;;;;;;;15.40;9.85;;;;;;;20.75;100.00;93597.25;5052808;28;20471;-61
2023/06/30 10:40:29;;;;;;;15.63;10.53;;;;;;;21.09;100.00;93609.53;5064777;28;20102;-61
2023/06/30 10:42:58;;;;;;;15.20;10.10;;;;;;;21.11;100.00;93609.03;5061934;28;20047;-63
2023/06/30 10:45:33;;;;;;;18.15;10.57;;;;;;;21.42;100.00;93607.53;5069706;28;20073;-63
2023/06/30 10:48:17;;;;;;;15.65;10.07;;;;;;;21.07;100.00;93611.28;5069590;28;20045;-61
2023/06/30 10:50:44;;;;;;;16.73;11.35;;;;;;;20.68;100.00;93600.44;5069489;28;20051;-60
2023/06/30 10:53:20;;;;;;;16.83;11.33;;;;;;;21.09;100.00;93603.94;5070269;28;20044;-60
2023/06/30 10:55:47;;;;;;;16.13;10.60;;;;;;;21.37;100.00;93611.81;5056407;28;20111;-61
2023/06/30 10:58:23;;;;;;;17.05;11.98;;;;;;;19.92;100.00;93607.53;5070456;28;20059;-61
2023/06/30 11:01:04;;;;;;;17.27;10.70;;;;;;;20.99;100.00;93607.38;5069131;28;21530;-60
2023/06/30 11:04:12;;;;;;;15.88;10.77;;;;;;;20.66;100.00;93606.50;5035493;28;20052;-60
2023/06/30 11:06:39;;;;;;;17.30;11.13;;;;;;;21.30;100.00;93610.22;4987347;28;20129;-61
2023/06/30 11:09:10;;;;;;;16.98;11.20;;;;;;;22.01;100.00;93609.03;4988342;28;20053;-59
2023/06/30 11:11:50;;;;;;;17.15;11.18;;;;;;;22.81;100.00;93608.22;5021984;28;20055;-60
2023/06/30 11:14:33;;;;;;;17.83;11.43;;;;;;;22.46;100.00;93607.31;5061487;28;20048;-59